createdAt,value
2023-01-13T00:01:55.100Z,0.70
2023-01-13T00:04:26.080Z,0.60
2023-01-13T00:06:56.489Z,0.90
2023-01-13T00:09:27.054Z,0.60
2023-01-13T00:11:57.815Z,0.70
2023-01-13T00:14:30.181Z,0.50
2023-01-13T00:17:00.536Z,0.60
2023-01-13T00:19:31.254Z,0.60
2023-01-13T00:22:01.584Z,0.70
2023-01-13T00:24:32.165Z,0.70
2023-01-13T00:27:03.045Z,0.70
2023-01-13T00:29:33.433Z,0.50
2023-01-13T00:32:03.929Z,0.80
2023-01-13T00:34:34.644Z,0.80
2023-01-13T00:37:05.484Z,0.60
2023-01-13T00:39:35.802Z,0.80
2023-01-13T00:42:23.797Z,0.70
2023-01-13T00:44:54.292Z,0.60
2023-01-13T00:47:24.721Z,0.80
2023-01-13T00:49:56.229Z,0.90
2023-01-13T00:52:27.277Z,0.70
2023-01-13T00:54:57.900Z,0.60
2023-01-13T00:57:28.271Z,0.70
2023-01-13T00:59:58.721Z,0.70
2023-01-13T01:02:29.430Z,0.70
2023-01-13T01:05:01.048Z,0.70
2023-01-13T01:07:31.964Z,0.70
2023-01-13T01:10:02.567Z,1.00
2023-01-13T01:12:32.965Z,0.80
2023-01-13T01:15:06.029Z,0.70
2023-01-13T01:17:36.416Z,0.70
2023-01-13T01:20:07.911Z,0.90
2023-01-13T01:22:38.274Z,0.70
2023-01-13T01:25:10.340Z,0.80
2023-01-13T01:27:41.125Z,0.70
2023-01-13T01:30:14.628Z,0.70
2023-01-13T01:32:44.995Z,0.60
2023-01-13T01:35:15.404Z,0.60
2023-01-13T01:37:46.076Z,0.70
2023-01-13T01:40:16.910Z,0.70
2023-01-13T01:43:05.164Z,0.90
2023-01-13T01:45:36.137Z,0.70
2023-01-13T01:48:08.271Z,0.70
2023-01-13T01:50:40.716Z,0.80
2023-01-13T01:53:16.508Z,0.80
2023-01-13T01:55:47.437Z,0.70
2023-01-13T01:58:21.233Z,0.80
2023-01-13T02:00:52.056Z,0.60
2023-01-13T02:03:23.081Z,0.80
2023-01-13T02:05:54.643Z,0.80
2023-01-13T02:08:25.124Z,0.70
2023-01-13T02:10:56.697Z,0.80
2023-01-13T02:13:27.758Z,0.60
2023-01-13T02:16:08.727Z,0.60
2023-01-13T02:18:55.570Z,0.70
2023-01-13T02:21:50.006Z,0.60
2023-01-13T02:24:55.702Z,0.80
2023-01-13T02:27:53.932Z,0.60
2023-01-13T02:30:50.967Z,0.60
2023-01-13T02:33:33.299Z,0.80
2023-01-13T02:36:10.892Z,0.80
2023-01-13T02:38:50.939Z,0.80
2023-01-13T02:41:45.678Z,0.70
2023-01-13T02:44:22.246Z,0.60
2023-01-13T02:46:58.715Z,0.70
2023-01-13T02:49:35.569Z,0.70
2023-01-13T02:52:12.622Z,0.80
2023-01-13T02:54:48.923Z,0.80
2023-01-13T02:57:21.677Z,0.90
2023-01-13T02:59:54.172Z,0.90
2023-01-13T03:02:26.424Z,0.90
2023-01-13T03:04:59.799Z,0.90
2023-01-13T03:07:53.402Z,0.90
2023-01-13T03:10:33.252Z,0.90
2023-01-13T03:13:13.694Z,0.90
2023-01-13T03:15:53.841Z,1.30
2023-01-13T03:18:37.059Z,0.90
2023-01-13T03:21:14.738Z,0.70
2023-01-13T03:23:51.964Z,1.60
2023-01-13T03:26:30.666Z,1.00
2023-01-13T03:29:08.280Z,1.00
2023-01-13T03:31:45.264Z,1.00
2023-01-13T03:34:18.543Z,1.00
2023-01-13T03:36:54.176Z,1.10
2023-01-13T03:39:30.925Z,1.20
2023-01-13T03:42:06.714Z,1.40
2023-01-13T03:44:43.793Z,1.00
2023-01-13T03:47:21.589Z,1.00
2023-01-13T03:49:58.195Z,1.10
2023-01-13T03:52:33.462Z,1.20
2023-01-13T03:55:08.865Z,1.40
2023-01-13T03:57:43.992Z,1.10
2023-01-13T04:00:16.961Z,1.20
2023-01-13T04:02:54.423Z,1.00
2023-01-13T04:05:26.009Z,1.10
2023-01-13T04:08:02.601Z,1.10
2023-01-13T04:10:36.081Z,1.30
2023-01-13T04:13:12.967Z,1.30
2023-01-13T04:15:46.074Z,1.10
2023-01-13T04:18:19.086Z,1.10
2023-01-13T04:20:51.711Z,1.20
2023-01-13T04:23:23.172Z,1.30
2023-01-13T04:25:54.538Z,1.30
2023-01-13T04:28:26.174Z,1.20
2023-01-13T04:30:56.552Z,1.40
2023-01-13T04:33:27.365Z,1.50
2023-01-13T04:35:58.073Z,1.30
2023-01-13T04:38:28.424Z,1.40
2023-01-13T04:40:58.992Z,1.70
2023-01-13T04:43:29.991Z,1.60
2023-01-13T04:46:00.772Z,1.60
2023-01-13T04:48:31.536Z,1.40
2023-01-13T04:51:02.022Z,1.50
2023-01-13T04:53:32.584Z,1.50
2023-01-13T04:56:03.014Z,1.20
2023-01-13T04:58:33.751Z,1.60
2023-01-13T05:01:04.165Z,1.70
2023-01-13T05:03:34.910Z,1.30
2023-01-13T05:06:05.510Z,1.80
2023-01-13T05:08:36.185Z,1.50
2023-01-13T05:11:26.695Z,2.20
2023-01-13T05:14:14.549Z,2.00
2023-01-13T05:17:01.754Z,1.60
2023-01-13T05:19:34.173Z,2.00
2023-01-13T05:22:22.761Z,1.60
2023-01-13T05:25:11.223Z,1.40
2023-01-13T05:27:41.583Z,1.30
2023-01-13T05:30:13.664Z,1.60
2023-01-13T05:32:43.992Z,1.90
2023-01-13T05:35:15.997Z,1.60
2023-01-13T05:37:48.082Z,1.90
2023-01-13T05:40:38.104Z,1.70
2023-01-13T05:43:24.657Z,1.40
2023-01-13T05:45:59.240Z,1.80
2023-01-13T05:48:31.457Z,2.00
2023-01-13T05:51:02.432Z,2.20
2023-01-13T05:53:32.846Z,1.70
2023-01-13T05:56:05.331Z,1.70
2023-01-13T05:58:36.105Z,2.20
2023-01-13T06:01:08.582Z,1.70
2023-01-13T06:03:39.428Z,1.90
2023-01-13T06:06:10.191Z,2.00
2023-01-13T06:08:40.882Z,2.30
2023-01-13T06:11:11.758Z,1.90
2023-01-13T06:13:42.468Z,1.80
2023-01-13T06:16:12.914Z,2.40
2023-01-13T06:18:43.240Z,1.70
2023-01-13T06:21:13.888Z,1.40
2023-01-13T06:23:44.888Z,1.70
2023-01-13T06:26:18.618Z,2.00
2023-01-13T06:28:49.952Z,2.20
2023-01-13T06:31:21.008Z,2.20
2023-01-13T06:33:56.761Z,2.40
2023-01-13T06:36:32.273Z,1.70
2023-01-13T06:39:05.087Z,2.50
2023-01-13T06:41:53.469Z,1.80
2023-01-13T06:44:25.316Z,1.60
2023-01-13T06:46:55.699Z,2.10
2023-01-13T06:49:26.234Z,1.50
2023-01-13T06:51:56.873Z,1.60
2023-01-13T06:54:27.934Z,1.40
2023-01-13T06:56:58.615Z,1.20
2023-01-13T06:59:29.031Z,1.60
2023-01-13T07:01:59.929Z,1.30
2023-01-13T07:04:30.907Z,1.40
2023-01-13T07:07:01.581Z,1.30
2023-01-13T07:09:32.306Z,1.30
2023-01-13T07:12:02.684Z,1.30
2023-01-13T07:14:50.532Z,1.50
2023-01-13T07:17:25.503Z,1.40
2023-01-13T07:19:55.926Z,1.60
2023-01-13T07:22:26.566Z,1.30
2023-01-13T07:24:58.036Z,1.30
2023-01-13T07:27:28.357Z,3.10
2023-01-13T07:29:58.671Z,2.00
2023-01-13T07:32:29.326Z,1.30
2023-01-13T07:35:04.853Z,1.40
2023-01-13T07:37:37.985Z,1.30
2023-01-13T07:40:10.757Z,1.90
2023-01-13T07:42:58.597Z,1.20
2023-01-13T07:45:29.010Z,1.40
2023-01-13T07:47:59.459Z,1.20
2023-01-13T07:50:30.097Z,1.10
2023-01-13T07:53:01.847Z,1.60
2023-01-13T07:55:32.541Z,1.20
2023-01-13T07:58:03.834Z,1.70
2023-01-13T08:00:34.503Z,1.50
2023-01-13T08:03:05.016Z,1.50
2023-01-13T08:05:37.156Z,2.00
2023-01-13T08:08:08.257Z,1.30
2023-01-13T08:10:38.659Z,1.50
2023-01-13T08:13:19.961Z,3.60
2023-01-13T08:15:52.112Z,2.00
2023-01-13T08:18:24.060Z,1.20
2023-01-13T08:20:55.023Z,1.30
2023-01-13T08:23:25.857Z,1.20
2023-01-13T08:25:56.250Z,1.80
2023-01-13T08:28:27.091Z,1.40
2023-01-13T08:30:59.620Z,1.40
2023-01-13T08:33:30.662Z,1.10
2023-01-13T08:36:03.659Z,1.40
2023-01-13T08:38:35.365Z,2.00
2023-01-13T08:41:11.464Z,1.20
2023-01-13T08:43:42.092Z,1.60
2023-01-13T08:46:13.077Z,1.20
2023-01-13T08:48:43.454Z,1.30
2023-01-13T08:51:14.172Z,3.90
2023-01-13T08:53:44.528Z,1.50
2023-01-13T08:56:16.923Z,1.60
2023-01-13T08:58:47.423Z,1.50
2023-01-13T09:01:21.295Z,1.70
2023-01-13T09:03:51.989Z,1.20
2023-01-13T09:06:22.964Z,1.70
2023-01-13T09:08:53.299Z,1.60
2023-01-13T09:11:52.742Z,1.40
2023-01-13T09:14:24.969Z,1.50
2023-01-13T09:16:55.697Z,1.30
2023-01-13T09:19:26.967Z,1.20
2023-01-13T09:21:58.276Z,1.10
2023-01-13T09:24:29.500Z,1.50
2023-01-13T09:27:00.462Z,1.10
2023-01-13T09:29:31.183Z,1.30
2023-01-13T09:32:01.596Z,1.30
2023-01-13T09:34:50.147Z,1.20
2023-01-13T09:37:20.785Z,1.30
2023-01-13T09:39:51.092Z,1.60
2023-01-13T09:42:45.981Z,1.50
2023-01-13T09:45:20.849Z,1.50
2023-01-13T09:47:58.592Z,1.50
2023-01-13T09:50:35.177Z,1.60
2023-01-13T09:53:11.191Z,1.70
2023-01-13T09:55:41.750Z,1.70
2023-01-13T09:58:16.694Z,1.60
2023-01-13T10:00:53.376Z,1.90
2023-01-13T10:03:27.282Z,1.70
2023-01-13T10:06:04.663Z,1.30
2023-01-13T10:08:38.757Z,1.30
2023-01-13T10:11:35.829Z,1.60
2023-01-13T10:14:16.807Z,1.90
2023-01-13T10:16:52.227Z,1.70
2023-01-13T10:19:27.585Z,1.70
2023-01-13T10:22:23.074Z,1.30
2023-01-13T10:25:20.658Z,1.70
2023-01-13T10:30:27.481Z,1.40
2023-01-13T10:32:59.611Z,1.50
2023-01-13T10:35:52.160Z,1.20
2023-01-13T10:38:25.053Z,1.00
2023-01-13T10:40:57.851Z,1.30
2023-01-13T10:43:29.902Z,1.30
2023-01-13T10:46:04.420Z,1.70
2023-01-13T10:48:52.252Z,1.90
2023-01-13T10:53:57.353Z,1.90
2023-01-13T10:56:29.809Z,1.50
2023-01-13T10:59:24.482Z,1.80
2023-01-13T11:02:12.979Z,1.50
2023-01-13T11:05:10.802Z,2.00
2023-01-13T11:10:22.184Z,1.50
2023-01-13T11:13:05.345Z,1.50
2023-01-13T11:15:44.190Z,1.60
2023-01-13T11:18:25.796Z,1.50
2023-01-13T11:20:58.502Z,1.60
2023-01-13T11:23:35.343Z,1.40
2023-01-13T11:26:11.516Z,1.30
2023-01-13T11:28:49.871Z,1.40
2023-01-13T11:31:26.289Z,1.50
2023-01-13T11:34:00.757Z,1.20
2023-01-13T11:36:39.185Z,1.80
2023-01-13T11:39:20.656Z,1.60
2023-01-13T11:42:12.181Z,1.80
2023-01-13T11:44:50.151Z,3.10
2023-01-13T11:47:25.357Z,2.10
2023-01-13T11:49:55.783Z,2.10
2023-01-13T11:52:34.280Z,2.60
2023-01-13T11:55:30.406Z,1.90
2023-01-13T11:58:17.110Z,1.70
2023-01-13T12:01:03.647Z,1.60
2023-01-13T12:03:39.167Z,1.30
2023-01-13T12:06:22.683Z,1.60
2023-01-13T12:09:29.013Z,1.40
2023-01-13T12:12:20.158Z,1.50
2023-01-13T12:15:08.870Z,1.50
2023-01-13T12:17:52.396Z,1.60
2023-01-13T12:20:40.398Z,1.80
2023-01-13T12:23:19.052Z,1.70
2023-01-13T12:25:55.118Z,1.40
2023-01-13T12:28:29.263Z,1.40
2023-01-13T12:31:03.580Z,2.10
2023-01-13T12:33:47.988Z,1.40
2023-01-13T12:36:23.292Z,1.40
2023-01-13T12:38:59.334Z,1.70
2023-01-13T12:42:03.008Z,1.60
2023-01-13T12:44:33.569Z,1.40
2023-01-13T12:47:04.316Z,1.70
2023-01-13T12:49:36.506Z,1.40
2023-01-13T12:52:20.356Z,1.50
2023-01-13T12:55:22.417Z,1.70
2023-01-13T12:58:15.045Z,1.40
2023-01-13T13:01:01.968Z,1.60
2023-01-13T13:03:35.627Z,1.50
2023-01-13T13:06:10.958Z,1.60
2023-01-13T13:09:03.618Z,1.80
2023-01-13T13:12:04.437Z,1.40
2023-01-13T13:15:04.407Z,3.00
2023-01-13T13:18:01.421Z,1.60
2023-01-13T13:21:03.623Z,1.40
2023-01-13T13:24:03.034Z,1.50
2023-01-13T13:26:39.443Z,1.70
2023-01-13T13:29:23.683Z,1.50
2023-01-13T13:32:08.340Z,1.60
2023-01-13T13:34:47.675Z,1.60
2023-01-13T13:37:58.747Z,1.80
2023-01-13T13:40:51.396Z,1.60
2023-01-13T13:43:40.848Z,1.90
2023-01-13T13:46:45.236Z,1.40
2023-01-13T13:49:17.037Z,1.80
2023-01-13T13:51:55.298Z,1.70
2023-01-13T13:54:25.896Z,1.60
2023-01-13T13:56:58.095Z,1.80
2023-01-13T13:59:30.517Z,1.40
2023-01-13T14:02:03.711Z,1.60
2023-01-13T14:04:37.457Z,1.60
2023-01-13T14:07:20.749Z,1.80
2023-01-13T14:09:54.631Z,1.50
2023-01-13T14:12:27.002Z,1.20
2023-01-13T14:14:59.832Z,2.90
2023-01-13T14:17:32.026Z,1.90
2023-01-13T14:20:05.537Z,1.70
2023-01-13T14:22:36.464Z,1.40
2023-01-13T14:25:36.623Z,1.70
2023-01-13T14:28:18.230Z,1.70
2023-01-13T14:30:49.864Z,1.40
2023-01-13T14:33:24.060Z,1.90
2023-01-13T14:36:17.166Z,1.60
2023-01-13T14:38:50.012Z,1.60
2023-01-13T14:41:28.368Z,1.70
2023-01-13T14:44:01.909Z,1.50
2023-01-13T14:46:41.062Z,1.40
2023-01-13T14:49:24.328Z,1.60
2023-01-13T14:52:03.960Z,1.50
2023-01-13T14:54:48.269Z,1.70
2023-01-13T14:57:27.399Z,1.60
2023-01-13T15:00:07.963Z,1.60
2023-01-13T15:02:43.720Z,1.70
2023-01-13T15:05:33.657Z,1.50
2023-01-13T15:08:09.142Z,1.50
2023-01-13T15:10:48.773Z,1.60
2023-01-13T15:13:31.991Z,1.50
2023-01-13T15:16:05.715Z,2.00
2023-01-13T15:18:40.048Z,2.00
2023-01-13T15:21:10.878Z,2.00
2023-01-13T15:23:41.361Z,1.90
2023-01-13T15:26:22.178Z,1.70
2023-01-13T15:28:53.290Z,1.90
2023-01-13T15:31:24.665Z,2.30
2023-01-13T15:33:55.739Z,1.90
2023-01-13T15:36:29.326Z,2.00
2023-01-13T15:39:00.841Z,1.50
2023-01-13T15:41:48.397Z,1.80
2023-01-13T15:44:36.531Z,1.70
2023-01-13T15:47:10.236Z,1.20
2023-01-13T15:49:43.479Z,1.60
2023-01-13T15:52:21.377Z,1.30
2023-01-13T15:57:25.822Z,1.40
2023-01-13T15:59:59.336Z,1.40
2023-01-13T16:02:30.998Z,1.20
2023-01-13T16:05:01.691Z,1.50
2023-01-13T16:07:32.113Z,1.70
2023-01-13T16:10:04.839Z,1.30
2023-01-13T16:12:35.378Z,1.50
2023-01-13T16:15:06.848Z,1.70
2023-01-13T16:17:38.195Z,1.60
2023-01-13T16:20:15.856Z,1.40
2023-01-13T16:22:46.374Z,1.50
2023-01-13T16:25:21.241Z,1.70
2023-01-13T16:27:52.363Z,1.30
2023-01-13T16:30:27.848Z,1.20
2023-01-13T16:32:58.596Z,1.40
2023-01-13T16:35:31.891Z,1.40
2023-01-13T16:38:02.873Z,1.70
2023-01-13T16:40:36.445Z,1.50
2023-01-13T16:43:07.125Z,1.30
2023-01-13T16:45:37.889Z,1.60
2023-01-13T16:48:16.910Z,1.40
2023-01-13T16:50:47.595Z,1.70
2023-01-13T16:53:18.102Z,1.40
2023-01-13T16:55:48.508Z,1.90
2023-01-13T16:58:21.342Z,1.40
2023-01-13T17:00:52.768Z,1.60
2023-01-13T17:03:23.655Z,1.50
2023-01-13T17:05:54.566Z,1.70
2023-01-13T17:08:25.427Z,2.00
2023-01-13T17:10:55.898Z,1.90
2023-01-13T17:13:26.673Z,1.80
2023-01-13T17:15:57.049Z,1.80
2023-01-13T17:18:27.546Z,1.90
2023-01-13T17:20:58.843Z,2.00
2023-01-13T17:23:31.469Z,1.90
2023-01-13T17:26:02.181Z,1.90
2023-01-13T17:28:33.306Z,1.90
2023-01-13T17:31:04.126Z,1.60
2023-01-13T17:33:37.135Z,1.40
2023-01-13T17:36:08.322Z,1.50
2023-01-13T17:38:38.725Z,1.70
2023-01-13T17:41:09.287Z,3.50
2023-01-13T17:43:39.733Z,1.40
2023-01-13T17:46:16.425Z,1.50
2023-01-13T17:48:47.387Z,2.00
2023-01-13T17:51:19.540Z,1.70
2023-01-13T17:53:50.290Z,2.00
2023-01-13T17:56:20.985Z,1.40
2023-01-13T17:58:51.688Z,1.80
2023-01-13T18:01:26.529Z,1.60
2023-01-13T18:03:57.088Z,1.80
2023-01-13T18:06:28.123Z,1.70
2023-01-13T18:08:59.192Z,1.60
2023-01-13T18:11:30.261Z,1.90
2023-01-13T18:14:01.216Z,1.60
2023-01-13T18:16:33.761Z,1.50
2023-01-13T18:19:22.346Z,2.40
2023-01-13T18:22:10.743Z,1.40
2023-01-13T18:24:59.289Z,1.60
2023-01-13T18:27:33.533Z,1.30
2023-01-13T18:30:06.485Z,2.20
2023-01-13T18:32:37.333Z,1.60
2023-01-13T18:35:10.737Z,1.80
2023-01-13T18:37:43.005Z,1.40
2023-01-13T18:40:15.177Z,1.80
2023-01-13T18:42:55.287Z,1.60
2023-01-13T18:45:27.327Z,1.80
2023-01-13T18:48:00.679Z,1.90
2023-01-13T18:50:31.394Z,2.20
2023-01-13T18:53:02.302Z,1.90
2023-01-13T18:55:32.706Z,1.70
2023-01-13T18:58:03.075Z,1.80
2023-01-13T19:00:37.051Z,1.80
2023-01-13T19:05:38.887Z,2.00
2023-01-13T19:08:09.926Z,2.20
2023-01-13T19:10:41.384Z,2.00
2023-01-13T19:13:13.034Z,2.00
2023-01-13T19:15:43.731Z,1.90
2023-01-13T19:18:14.910Z,1.90
2023-01-13T19:20:45.285Z,2.00
2023-01-13T19:23:16.371Z,2.20
2023-01-13T19:25:47.075Z,1.70
2023-01-13T19:28:17.815Z,1.90
2023-01-13T19:30:48.261Z,2.20
2023-01-13T19:33:19.334Z,2.00
2023-01-13T19:35:54.777Z,1.90
2023-01-13T19:38:25.921Z,2.30
2023-01-13T19:40:58.286Z,1.90
2023-01-13T19:43:46.613Z,1.80
2023-01-13T19:46:17.397Z,3.00
2023-01-13T19:48:48.177Z,1.80
2023-01-13T19:51:18.521Z,2.60
2023-01-13T19:53:49.251Z,1.80
2023-01-13T19:56:19.942Z,1.90
2023-01-13T19:58:51.599Z,2.10
2023-01-13T20:01:24.829Z,1.50
2023-01-13T20:03:55.583Z,2.00
2023-01-13T20:06:25.894Z,2.30
2023-01-13T20:08:56.260Z,2.20
2023-01-13T20:11:31.220Z,2.00
2023-01-13T20:14:03.162Z,2.00
2023-01-13T20:16:33.882Z,2.30
2023-01-13T20:19:04.400Z,2.20
2023-01-13T20:21:34.993Z,2.00
2023-01-13T20:24:05.591Z,2.30
2023-01-13T20:26:37.512Z,2.40
2023-01-13T20:29:07.935Z,2.10
2023-01-13T20:31:38.484Z,2.50
2023-01-13T20:34:09.634Z,2.40
2023-01-13T20:36:43.224Z,3.30
2023-01-13T20:39:16.943Z,2.00
2023-01-13T20:42:20.332Z,2.90
2023-01-13T20:44:50.648Z,2.60
2023-01-13T20:47:21.267Z,2.40
2023-01-13T20:49:52.125Z,2.60
2023-01-13T20:52:22.591Z,2.20
2023-01-13T20:54:52.993Z,2.50
2023-01-13T20:57:23.577Z,2.20
2023-01-13T20:59:55.354Z,3.00
2023-01-13T21:02:25.720Z,2.40
2023-01-13T21:04:56.396Z,2.50
2023-01-13T21:07:28.155Z,2.70
2023-01-13T21:09:58.886Z,2.80
2023-01-13T21:12:46.834Z,3.60
2023-01-13T21:15:20.177Z,2.30
2023-01-13T21:18:09.830Z,2.00
2023-01-13T21:20:41.453Z,2.30
2023-01-13T21:23:12.200Z,2.20
2023-01-13T21:25:43.232Z,2.00
2023-01-13T21:28:16.028Z,2.50
2023-01-13T21:30:47.256Z,2.20
2023-01-13T21:33:17.620Z,2.10
2023-01-13T21:35:48.225Z,2.40
2023-01-13T21:38:18.952Z,1.80
2023-01-13T21:40:56.343Z,2.40
2023-01-13T21:43:44.587Z,2.00
2023-01-13T21:46:30.149Z,1.90
2023-01-13T21:49:01.041Z,2.10
2023-01-13T21:51:32.155Z,1.80
2023-01-13T21:54:02.582Z,1.80
2023-01-13T21:56:33.614Z,2.00
2023-01-13T21:59:04.322Z,2.30
2023-01-13T22:01:34.803Z,2.10
2023-01-13T22:04:14.497Z,1.90
2023-01-13T22:06:44.861Z,1.50
2023-01-13T22:09:15.210Z,1.80
2023-01-13T22:11:45.554Z,1.50
2023-01-13T22:14:16.114Z,1.70
2023-01-13T22:16:49.567Z,1.70
2023-01-13T22:19:20.253Z,1.70
2023-01-13T22:21:51.291Z,1.60
2023-01-13T22:24:21.622Z,1.40
2023-01-13T22:26:52.670Z,1.80
2023-01-13T22:29:22.934Z,1.80
2023-01-13T22:31:53.630Z,1.90
2023-01-13T22:34:24.079Z,1.50
2023-01-13T22:36:54.394Z,1.70
2023-01-13T22:39:24.731Z,1.60
2023-01-13T22:41:55.607Z,1.70
2023-01-13T22:44:26.882Z,1.40
2023-01-13T22:46:57.222Z,1.50
2023-01-13T22:49:27.948Z,1.30
2023-01-13T22:51:58.691Z,1.30
2023-01-13T22:54:29.356Z,1.30
2023-01-13T22:56:59.912Z,1.10
2023-01-13T22:59:31.811Z,1.30
2023-01-13T23:02:02.941Z,1.10
2023-01-13T23:04:33.674Z,1.20
2023-01-13T23:07:04.029Z,1.10
2023-01-13T23:09:34.489Z,1.20
2023-01-13T23:12:05.236Z,1.10
2023-01-13T23:14:35.704Z,1.00
2023-01-13T23:17:07.061Z,1.10
2023-01-13T23:19:37.580Z,1.10
2023-01-13T23:22:07.885Z,1.20
2023-01-13T23:24:38.860Z,0.80
2023-01-13T23:27:09.563Z,1.00
2023-01-13T23:29:40.351Z,1.20
2023-01-13T23:32:11.325Z,1.00
2023-01-13T23:34:41.677Z,0.90
2023-01-13T23:37:12.561Z,1.30
2023-01-13T23:39:42.851Z,1.50
2023-01-13T23:42:13.163Z,1.20
2023-01-13T23:44:43.777Z,1.60
2023-01-13T23:47:14.428Z,1.30
2023-01-13T23:49:44.744Z,1.70
2023-01-13T23:52:15.093Z,1.40
2023-01-13T23:54:45.713Z,1.40
2023-01-13T23:57:16.366Z,1.70
2023-01-13T23:59:46.842Z,1.50
